createdAt,value
2023-01-12T00:02:21.050Z,101501.41
2023-01-12T00:04:48.755Z,101494.31
2023-01-12T00:07:17.903Z,101497.13
2023-01-12T00:09:45.499Z,101493.53
2023-01-12T00:12:12.925Z,101485.81
2023-01-12T00:14:40.509Z,101491.13
2023-01-12T00:17:09.297Z,101506.91
2023-01-12T00:19:38.989Z,101489.56
2023-01-12T00:22:12.026Z,101488.59
2023-01-12T00:24:45.841Z,101480.00
2023-01-12T00:27:18.295Z,101486.06
2023-01-12T00:29:46.037Z,101481.63
2023-01-12T00:32:16.111Z,101467.78
2023-01-12T00:34:44.107Z,101452.13
2023-01-12T00:37:12.170Z,101456.50
2023-01-12T00:39:42.972Z,101444.28
2023-01-12T00:42:32.083Z,101469.59
2023-01-12T00:45:18.173Z,101470.50
2023-01-12T00:47:45.661Z,101476.66
2023-01-12T00:50:12.922Z,101452.28
2023-01-12T00:52:40.573Z,101436.56
2023-01-12T00:55:08.573Z,101428.75
2023-01-12T00:57:36.170Z,101454.09
2023-01-12T01:00:04.325Z,101454.06
2023-01-12T01:02:31.868Z,101439.34
2023-01-12T01:05:00.214Z,101440.06
2023-01-12T01:07:28.017Z,101437.47
2023-01-12T01:09:55.508Z,101427.97
2023-01-12T01:12:23.106Z,101433.19
2023-01-12T01:14:50.576Z,101425.28
2023-01-12T01:17:18.144Z,101429.69
2023-01-12T01:19:45.583Z,101423.50
2023-01-12T01:22:13.309Z,101432.28
2023-01-12T01:24:41.786Z,101411.50
2023-01-12T01:27:09.695Z,101438.47
2023-01-12T01:29:37.169Z,101428.06
2023-01-12T01:32:05.424Z,101419.38
2023-01-12T01:34:33.033Z,101406.31
2023-01-12T01:37:00.724Z,101408.06
2023-01-12T01:39:28.309Z,101417.63
2023-01-12T01:41:55.937Z,101421.94
2023-01-12T01:44:29.395Z,101416.63
2023-01-12T01:47:11.546Z,101411.44
2023-01-12T01:49:52.658Z,101401.03
2023-01-12T01:52:31.753Z,101381.00
2023-01-12T01:55:21.925Z,101385.38
2023-01-12T01:57:57.411Z,101387.16
2023-01-12T02:00:25.719Z,101388.03
2023-01-12T02:02:54.777Z,101388.91
2023-01-12T02:05:25.824Z,101382.03
2023-01-12T02:07:53.994Z,101403.88
2023-01-12T02:10:21.911Z,101395.97
2023-01-12T02:13:09.152Z,101380.44
2023-01-12T02:16:16.189Z,101391.75
2023-01-12T02:18:55.915Z,101392.69
2023-01-12T02:21:59.765Z,101390.94
2023-01-12T02:24:55.341Z,101400.53
2023-01-12T02:27:34.589Z,101384.84
2023-01-12T02:30:23.790Z,101364.63
2023-01-12T02:33:08.007Z,101377.81
2023-01-12T02:35:35.485Z,101388.22
2023-01-12T02:38:18.161Z,101376.81
2023-01-12T02:40:45.529Z,101384.59
2023-01-12T02:43:15.880Z,101398.63
2023-01-12T02:46:14.545Z,101403.81
2023-01-12T02:49:05.570Z,101400.19
2023-01-12T02:51:52.182Z,101394.97
2023-01-12T02:54:21.800Z,101383.63
2023-01-12T02:56:55.762Z,101389.66
2023-01-12T02:59:27.091Z,101387.09
2023-01-12T03:02:00.787Z,101382.66
2023-01-12T03:04:30.322Z,101373.09
2023-01-12T03:06:58.542Z,101369.53
2023-01-12T03:09:28.635Z,101366.81
2023-01-12T03:12:01.481Z,101351.97
2023-01-12T03:14:31.454Z,101358.97
2023-01-12T03:17:00.326Z,101358.03
2023-01-12T03:19:32.523Z,101352.88
2023-01-12T03:22:05.215Z,101352.88
2023-01-12T03:24:40.318Z,101344.13
2023-01-12T03:27:20.315Z,101341.50
2023-01-12T03:29:56.096Z,101347.66
2023-01-12T03:32:24.515Z,101346.75
2023-01-12T03:34:52.270Z,101358.13
2023-01-12T03:37:25.619Z,101365.16
2023-01-12T03:40:22.523Z,101357.19
2023-01-12T03:43:06.927Z,101343.28
2023-01-12T03:45:41.557Z,101371.16
2023-01-12T03:48:32.257Z,101375.50
2023-01-12T03:51:26.376Z,101388.66
2023-01-12T03:53:56.123Z,101371.16
2023-01-12T03:56:27.309Z,101368.53
2023-01-12T03:58:54.851Z,101366.88
2023-01-12T04:01:22.569Z,101377.28
2023-01-12T04:03:50.241Z,101379.03
2023-01-12T04:06:17.921Z,101360.72
2023-01-12T04:08:45.477Z,101353.78
2023-01-12T04:11:31.342Z,101345.97
2023-01-12T04:13:59.082Z,101325.00
2023-01-12T04:16:26.587Z,101309.44
2023-01-12T04:18:54.048Z,101313.81
2023-01-12T04:21:39.931Z,101320.72
2023-01-12T04:24:07.419Z,101316.50
2023-01-12T04:26:34.892Z,101326.97
2023-01-12T04:29:02.485Z,101317.38
2023-01-12T04:31:29.909Z,101323.56
2023-01-12T04:33:57.444Z,101329.66
2023-01-12T04:36:24.857Z,101320.94
2023-01-12T04:38:52.292Z,101314.88
2023-01-12T04:41:19.677Z,101318.41
2023-01-12T04:43:47.297Z,101304.44
2023-01-12T04:46:15.368Z,101310.56
2023-01-12T04:48:46.675Z,101300.94
2023-01-12T04:51:14.228Z,101303.44
2023-01-12T04:53:41.847Z,101317.53
2023-01-12T04:56:09.944Z,101307.19
2023-01-12T04:58:37.445Z,101316.69
2023-01-12T05:01:15.239Z,101317.53
2023-01-12T05:03:43.702Z,101317.66
2023-01-12T05:06:11.983Z,101314.16
2023-01-12T05:08:58.553Z,101318.53
2023-01-12T05:11:28.650Z,101301.97
2023-01-12T05:13:57.495Z,101301.09
2023-01-12T05:16:25.946Z,101294.03
2023-01-12T05:18:54.397Z,101291.41
2023-01-12T05:21:23.318Z,101300.19
2023-01-12T05:23:53.126Z,101291.34
2023-01-12T05:26:21.036Z,101299.25
2023-01-12T05:28:50.104Z,101297.47
2023-01-12T05:31:19.744Z,101302.81
2023-01-12T05:33:47.881Z,101293.06
2023-01-12T05:36:17.054Z,101290.53
2023-01-12T05:38:44.634Z,101276.50
2023-01-12T05:41:14.621Z,101283.50
2023-01-12T05:43:52.573Z,101274.88
2023-01-12T05:46:29.693Z,101276.63
2023-01-12T05:48:58.591Z,101274.84
2023-01-12T05:51:27.795Z,101271.28
2023-01-12T05:53:55.528Z,101272.34
2023-01-12T05:56:27.546Z,101267.97
2023-01-12T05:58:58.482Z,101260.16
2023-01-12T06:01:27.875Z,101257.47
2023-01-12T06:03:58.752Z,101260.94
2023-01-12T06:06:28.020Z,101263.59
2023-01-12T06:08:55.488Z,101261.91
2023-01-12T06:11:42.021Z,101263.69
2023-01-12T06:14:10.459Z,101263.66
2023-01-12T06:16:40.427Z,101266.31
2023-01-12T06:19:09.128Z,101255.78
2023-01-12T06:21:37.867Z,101248.84
2023-01-12T06:24:05.609Z,101254.00
2023-01-12T06:26:32.999Z,101247.88
2023-01-12T06:29:00.643Z,101247.75
2023-01-12T06:31:28.143Z,101255.72
2023-01-12T06:33:56.261Z,101263.63
2023-01-12T06:36:23.612Z,101263.66
2023-01-12T06:38:50.895Z,101271.47
2023-01-12T06:41:36.973Z,101268.00
2023-01-12T06:44:04.676Z,101268.78
2023-01-12T06:46:32.117Z,101257.41
2023-01-12T06:48:59.822Z,101262.53
2023-01-12T06:51:27.483Z,101259.00
2023-01-12T06:53:55.550Z,101258.19
2023-01-12T06:56:23.349Z,101263.41
2023-01-12T06:58:50.854Z,101256.34
2023-01-12T07:01:18.669Z,101259.88
2023-01-12T07:03:46.257Z,101259.88
2023-01-12T07:06:14.563Z,101256.38
2023-01-12T07:08:43.470Z,101255.56
2023-01-12T07:11:15.230Z,101245.97
2023-01-12T07:13:43.135Z,101246.75
2023-01-12T07:16:10.826Z,101246.84
2023-01-12T07:18:38.368Z,101243.38
2023-01-12T07:21:09.854Z,101251.19
2023-01-12T07:23:38.561Z,101254.72
2023-01-12T07:26:06.018Z,101241.63
2023-01-12T07:28:34.480Z,101253.81
2023-01-12T07:31:07.062Z,101252.09
2023-01-12T07:33:37.110Z,101252.09
2023-01-12T07:36:05.398Z,101249.47
2023-01-12T07:38:33.319Z,101252.22
2023-01-12T07:41:02.299Z,101255.59
2023-01-12T07:43:30.594Z,101245.97
2023-01-12T07:45:59.725Z,101258.31
2023-01-12T07:48:27.673Z,101250.31
2023-01-12T07:50:55.256Z,101252.97
2023-01-12T07:53:22.904Z,101255.47
2023-01-12T07:55:50.325Z,101249.34
2023-01-12T07:58:17.959Z,101248.50
2023-01-12T08:00:46.031Z,101250.97
2023-01-12T08:03:16.831Z,101252.69
2023-01-12T08:05:44.931Z,101255.19
2023-01-12T08:08:13.127Z,101249.94
2023-01-12T08:10:44.145Z,101232.56
2023-01-12T08:13:12.433Z,101245.63
2023-01-12T08:15:44.643Z,101244.78
2023-01-12T08:18:28.434Z,101236.09
2023-01-12T08:21:00.433Z,101234.28
2023-01-12T08:23:34.899Z,101242.19
2023-01-12T08:26:07.101Z,101234.34
2023-01-12T08:28:40.542Z,101237.06
2023-01-12T08:31:14.179Z,101223.88
2023-01-12T08:33:42.615Z,101217.72
2023-01-12T08:38:46.672Z,101220.50
2023-01-12T08:41:32.614Z,101218.75
2023-01-12T08:44:02.184Z,101210.97
2023-01-12T08:46:46.542Z,101203.97
2023-01-12T08:49:16.953Z,101203.09
2023-01-12T08:51:45.606Z,101218.88
2023-01-12T08:54:16.268Z,101215.47
2023-01-12T08:56:44.949Z,101212.00
2023-01-12T08:59:13.700Z,101211.22
2023-01-12T09:01:41.483Z,101224.34
2023-01-12T09:04:09.351Z,101221.72
2023-01-12T09:06:40.341Z,101227.81
2023-01-12T09:09:11.594Z,101226.00
2023-01-12T09:11:41.123Z,101213.91
2023-01-12T09:14:08.931Z,101212.19
2023-01-12T09:16:36.693Z,101220.97
2023-01-12T09:19:04.907Z,101210.56
2023-01-12T09:21:33.248Z,101234.06
2023-01-12T09:24:00.669Z,101238.50
2023-01-12T09:26:32.218Z,101224.56
2023-01-12T09:29:01.043Z,101228.91
2023-01-12T09:31:30.170Z,101230.56
2023-01-12T09:33:58.878Z,101247.94
2023-01-12T09:36:31.319Z,101246.28
2023-01-12T09:38:58.846Z,101232.28
2023-01-12T09:41:50.621Z,101247.94
2023-01-12T09:44:51.044Z,101245.47
2023-01-12T09:47:28.399Z,101239.25
2023-01-12T09:50:10.231Z,101245.47
2023-01-12T09:52:47.988Z,101243.72
2023-01-12T09:55:36.314Z,101246.41
2023-01-12T09:58:27.229Z,101241.97
2023-01-12T10:00:58.018Z,101244.56
2023-01-12T10:03:38.631Z,101242.75
2023-01-12T10:06:08.991Z,101242.72
2023-01-12T10:08:42.887Z,101241.09
2023-01-12T10:11:25.547Z,101235.88
2023-01-12T10:14:11.348Z,101234.94
2023-01-12T10:16:57.686Z,101220.25
2023-01-12T10:19:35.850Z,101227.22
2023-01-12T10:22:36.985Z,101229.88
2023-01-12T10:25:35.291Z,101216.91
2023-01-12T10:28:24.562Z,101232.63
2023-01-12T10:30:56.122Z,101210.84
2023-01-12T10:33:26.677Z,101210.00
2023-01-12T10:36:16.422Z,101208.25
2023-01-12T10:38:57.700Z,101205.69
2023-01-12T10:41:27.149Z,101205.69
2023-01-12T10:44:00.335Z,101197.03
2023-01-12T10:46:34.440Z,101190.84
2023-01-12T10:49:24.383Z,101203.16
2023-01-12T10:52:20.429Z,101194.41
2023-01-12T10:54:49.621Z,101190.94
2023-01-12T10:57:23.451Z,101185.66
2023-01-12T11:00:02.746Z,101190.94
2023-01-12T11:02:43.270Z,101180.47
2023-01-12T11:05:44.884Z,101177.88
2023-01-12T11:08:23.811Z,101184.00
2023-01-12T11:10:51.369Z,101168.28
2023-01-12T11:13:26.579Z,101168.38
2023-01-12T11:16:18.412Z,101156.06
2023-01-12T11:19:07.035Z,101149.16
2023-01-12T11:21:38.189Z,101150.09
2023-01-12T11:24:35.533Z,101157.06
2023-01-12T11:27:27.184Z,101145.72
2023-01-12T11:30:00.707Z,101137.88
2023-01-12T11:32:34.104Z,101132.63
2023-01-12T11:35:19.571Z,101137.91
2023-01-12T11:37:47.470Z,101126.56
2023-01-12T11:40:27.296Z,101120.47
2023-01-12T11:43:19.228Z,101122.22
2023-01-12T11:45:53.646Z,101113.50
2023-01-12T11:48:38.103Z,101129.28
2023-01-12T11:51:05.828Z,101127.53
2023-01-12T11:53:34.548Z,101119.72
2023-01-12T11:56:31.280Z,101113.53
2023-01-12T11:59:04.907Z,101101.34
2023-01-12T12:02:09.970Z,101092.56
2023-01-12T12:05:00.990Z,101102.22
2023-01-12T12:07:47.051Z,101096.09
2023-01-12T12:10:37.893Z,101096.09
2023-01-12T12:13:20.840Z,101083.78
2023-01-12T12:16:36.517Z,101075.03
2023-01-12T12:19:10.115Z,101076.84
2023-01-12T12:22:07.812Z,101079.50
2023-01-12T12:24:41.132Z,101073.38
2023-01-12T12:27:36.541Z,101063.69
2023-01-12T12:30:23.516Z,101052.31
2023-01-12T12:32:50.825Z,101055.81
2023-01-12T12:35:33.445Z,101026.97
2023-01-12T12:38:30.314Z,101045.31
2023-01-12T12:41:41.414Z,101057.53
2023-01-12T12:45:06.656Z,101059.28
2023-01-12T12:47:52.334Z,101047.06
2023-01-12T12:50:40.678Z,101054.06
2023-01-12T12:53:24.408Z,101044.44
2023-01-12T12:55:53.541Z,101024.34
2023-01-12T12:58:21.687Z,101025.19
2023-01-12T13:00:54.150Z,101020.75
2023-01-12T13:03:40.662Z,101019.91
2023-01-12T13:06:29.624Z,101017.22
2023-01-12T13:09:00.599Z,101005.91
2023-01-12T13:11:48.753Z,101004.16
2023-01-12T13:14:27.787Z,100993.63
2023-01-12T13:17:00.617Z,100981.38
2023-01-12T13:19:43.190Z,100992.72
2023-01-12T13:22:29.419Z,100978.69
2023-01-12T13:25:02.458Z,100977.81
2023-01-12T13:28:01.074Z,100983.88
2023-01-12T13:30:28.759Z,100981.28
2023-01-12T13:33:20.475Z,100976.00
2023-01-12T13:35:48.692Z,100975.16
2023-01-12T13:38:15.977Z,100969.84
2023-01-12T13:40:43.357Z,100965.53
2023-01-12T13:43:29.334Z,100971.59
2023-01-12T13:46:20.404Z,100962.06
2023-01-12T13:48:50.967Z,100969.03
2023-01-12T13:51:39.707Z,100968.97
2023-01-12T13:54:11.833Z,100952.38
2023-01-12T13:56:40.193Z,100965.47
2023-01-12T13:59:16.484Z,100963.69
2023-01-12T14:01:47.878Z,100955.88
2023-01-12T14:04:20.315Z,100959.38
2023-01-12T14:06:57.207Z,100966.34
2023-01-12T14:09:43.340Z,100950.69
2023-01-12T14:12:19.652Z,100950.63
2023-01-12T14:15:24.021Z,100946.25
2023-01-12T14:18:02.458Z,100941.03
2023-01-12T14:20:34.316Z,100950.63
2023-01-12T14:23:27.949Z,100937.53
2023-01-12T14:26:12.646Z,100940.09
2023-01-12T14:28:46.397Z,100935.75
2023-01-12T14:31:32.916Z,100934.00
2023-01-12T14:34:03.952Z,100926.19
2023-01-12T14:36:35.570Z,100927.13
2023-01-12T14:39:09.272Z,100926.22
2023-01-12T14:41:55.499Z,100900.91
2023-01-12T14:44:44.550Z,100907.00
2023-01-12T14:47:26.663Z,100927.06
2023-01-12T14:49:54.469Z,100910.53
2023-01-12T14:52:32.833Z,100899.16
2023-01-12T14:55:25.589Z,100920.09
2023-01-12T14:57:57.593Z,100910.47
2023-01-12T15:00:30.812Z,100909.59
2023-01-12T15:03:01.697Z,100907.84
2023-01-12T15:05:33.318Z,100898.22
2023-01-12T15:08:28.023Z,100900.00
2023-01-12T15:10:58.698Z,100910.47
2023-01-12T15:13:34.158Z,100920.06
2023-01-12T15:16:38.547Z,100911.34
2023-01-12T15:19:24.628Z,100912.22
2023-01-12T15:22:10.955Z,100918.41
2023-01-12T15:24:59.260Z,100907.03
2023-01-12T15:27:28.798Z,100907.94
2023-01-12T15:29:56.448Z,100908.78
2023-01-12T15:32:51.401Z,100911.34
2023-01-12T15:35:24.869Z,100900.88
2023-01-12T15:37:56.706Z,100886.91
2023-01-12T15:40:27.096Z,100894.69
2023-01-12T15:42:59.939Z,100888.66
2023-01-12T15:45:38.837Z,100888.63
2023-01-12T15:48:07.658Z,100884.28
2023-01-12T15:50:38.255Z,100879.03
2023-01-12T15:53:12.606Z,100873.81
2023-01-12T15:55:41.410Z,100883.41
2023-01-12T15:58:08.958Z,100885.16
2023-01-12T16:00:36.609Z,100884.28
2023-01-12T16:03:04.174Z,100882.56
2023-01-12T16:05:31.754Z,100880.81
2023-01-12T16:07:59.191Z,100879.06
2023-01-12T16:10:30.270Z,100865.09
2023-01-12T16:13:01.937Z,100870.38
2023-01-12T16:15:30.489Z,100862.47
2023-01-12T16:17:57.869Z,100861.63
2023-01-12T16:20:25.397Z,100858.13
2023-01-12T16:22:52.853Z,100858.97
2023-01-12T16:25:20.445Z,100867.69
2023-01-12T16:27:47.873Z,100867.72
2023-01-12T16:30:16.056Z,100877.31
2023-01-12T16:32:46.664Z,100886.94
2023-01-12T16:35:15.930Z,100880.81
2023-01-12T16:37:43.565Z,100878.16
2023-01-12T16:40:12.325Z,100884.28
2023-01-12T16:42:39.944Z,100883.41
2023-01-12T16:45:07.987Z,100886.03
2023-01-12T16:47:35.523Z,100883.41
2023-01-12T16:50:03.910Z,100886.00
2023-01-12T16:52:31.407Z,100890.41
2023-01-12T16:54:58.928Z,100888.66
2023-01-12T16:57:26.393Z,100893.91
2023-01-12T16:59:53.858Z,100888.66
2023-01-12T17:02:21.358Z,100896.50
2023-01-12T17:04:52.225Z,100895.63
2023-01-12T17:07:20.426Z,100894.75
2023-01-12T17:09:48.089Z,100893.84
2023-01-12T17:12:15.870Z,100897.34
2023-01-12T17:14:43.649Z,100908.63
2023-01-12T17:17:12.145Z,100912.06
2023-01-12T17:19:43.098Z,100902.53
2023-01-12T17:22:12.333Z,100902.50
2023-01-12T17:24:40.870Z,100908.59
2023-01-12T17:27:10.054Z,100905.13
2023-01-12T17:29:38.012Z,100899.03
2023-01-12T17:32:07.579Z,100903.38
2023-01-12T17:34:40.097Z,100899.88
2023-01-12T17:37:10.559Z,100908.59
2023-01-12T17:39:46.141Z,100904.22
2023-01-12T17:42:35.205Z,100897.25
2023-01-12T17:45:06.478Z,100880.56
2023-01-12T17:47:34.014Z,100884.16
2023-01-12T17:50:01.491Z,100882.41
2023-01-12T17:52:29.029Z,100878.91
2023-01-12T17:54:56.576Z,100875.44
2023-01-12T17:57:24.190Z,100876.31
2023-01-12T17:59:51.777Z,100869.22
2023-01-12T18:02:19.451Z,100883.28
2023-01-12T18:04:47.212Z,100892.75
2023-01-12T18:07:14.782Z,100897.16
2023-01-12T18:09:42.307Z,100892.00
2023-01-12T18:12:10.655Z,100895.47
2023-01-12T18:14:38.441Z,100900.75
2023-01-12T18:17:05.961Z,100896.38
2023-01-12T18:19:33.529Z,100900.75
2023-01-12T18:22:06.023Z,100895.53
2023-01-12T18:24:34.787Z,100904.25
2023-01-12T18:27:02.843Z,100904.25
2023-01-12T18:29:30.473Z,100894.72
2023-01-12T18:31:57.868Z,100901.66
2023-01-12T18:34:25.382Z,100888.56
2023-01-12T18:36:52.983Z,100886.00
2023-01-12T18:39:21.186Z,100887.75
2023-01-12T18:42:08.956Z,100884.25
2023-01-12T18:44:38.378Z,100881.66
2023-01-12T18:47:25.132Z,100887.75
2023-01-12T18:49:57.681Z,100892.13
2023-01-12T18:52:43.989Z,100893.03
2023-01-12T18:55:11.502Z,100893.03
2023-01-12T18:57:38.753Z,100896.53
2023-01-12T19:00:16.792Z,100882.56
2023-01-12T19:02:44.772Z,100887.78
2023-01-12T19:05:31.166Z,100895.66
2023-01-12T19:07:58.668Z,100896.53
2023-01-12T19:10:26.884Z,100891.31
2023-01-12T19:13:14.249Z,100891.28
2023-01-12T19:16:00.783Z,100886.06
2023-01-12T19:18:28.535Z,100877.38
2023-01-12T19:21:21.686Z,100878.25
2023-01-12T19:24:07.685Z,100882.63
2023-01-12T19:26:53.660Z,100884.34
2023-01-12T19:29:21.302Z,100880.88
2023-01-12T19:31:48.807Z,100881.69
2023-01-12T19:34:16.261Z,100879.13
2023-01-12T19:36:43.496Z,100870.38
2023-01-12T19:39:18.595Z,100870.34
2023-01-12T19:42:04.589Z,100865.16
2023-01-12T19:44:32.042Z,100860.78
2023-01-12T19:46:59.272Z,100863.41
2023-01-12T19:49:26.607Z,100858.16
2023-01-12T19:51:53.915Z,100855.56
2023-01-12T19:54:24.375Z,100854.69
2023-01-12T19:56:51.844Z,100854.69
2023-01-12T19:59:19.363Z,100859.06
2023-01-12T20:01:46.940Z,100858.19
2023-01-12T20:04:14.633Z,100860.81
2023-01-12T20:06:42.094Z,100866.06
2023-01-12T20:09:09.825Z,100862.56
2023-01-12T20:11:37.361Z,100865.19
2023-01-12T20:14:05.024Z,100875.66
2023-01-12T20:16:32.436Z,100867.78
2023-01-12T20:19:00.273Z,100879.13
2023-01-12T20:21:27.731Z,100875.63
2023-01-12T20:23:55.511Z,100866.94
2023-01-12T20:26:23.290Z,100861.69
2023-01-12T20:28:50.950Z,100862.56
2023-01-12T20:31:20.770Z,100860.81
2023-01-12T20:33:48.456Z,100858.19
2023-01-12T20:36:18.033Z,100862.53
2023-01-12T20:38:47.436Z,100855.56
2023-01-12T20:41:16.464Z,100860.81
2023-01-12T20:43:44.027Z,100871.28
2023-01-12T20:46:13.290Z,100861.69
2023-01-12T20:48:44.996Z,100855.56
2023-01-12T20:51:16.663Z,100863.44
2023-01-12T20:53:44.414Z,100859.94
2023-01-12T20:56:12.209Z,100852.06
2023-01-12T20:58:39.826Z,100865.16
2023-01-12T21:01:12.181Z,100864.28
2023-01-12T21:03:40.068Z,100855.56
2023-01-12T21:06:09.479Z,100862.53
2023-01-12T21:08:43.297Z,100866.03
2023-01-12T21:11:12.581Z,100867.72
2023-01-12T21:13:39.981Z,100876.50
2023-01-12T21:16:08.843Z,100870.41
2023-01-12T21:18:36.264Z,100873.00
2023-01-12T21:21:05.648Z,100873.88
2023-01-12T21:23:33.418Z,100885.25
2023-01-12T21:26:00.944Z,100881.75
2023-01-12T21:28:30.335Z,100882.63
2023-01-12T21:31:01.611Z,100881.75
2023-01-12T21:33:29.851Z,100877.38
2023-01-12T21:35:58.375Z,100883.50
2023-01-12T21:38:27.051Z,100881.75
2023-01-12T21:40:55.607Z,100880.00
2023-01-12T21:43:23.218Z,100881.75
2023-01-12T21:45:53.055Z,100884.38
2023-01-12T21:48:23.240Z,100889.56
2023-01-12T21:50:50.833Z,100899.19
2023-01-12T21:53:21.361Z,100889.59
2023-01-12T21:55:54.580Z,100888.69
2023-01-12T21:58:23.976Z,100884.31
2023-01-12T22:00:51.902Z,100889.53
2023-01-12T22:03:23.455Z,100890.41
2023-01-12T22:05:51.152Z,100882.47
2023-01-12T22:08:18.925Z,100884.22
2023-01-12T22:10:46.591Z,100898.16
2023-01-12T22:13:16.550Z,100899.88
2023-01-12T22:15:45.112Z,100901.66
2023-01-12T22:18:12.564Z,100898.97
2023-01-12T22:20:42.635Z,100896.31
2023-01-12T22:23:13.137Z,100891.91
2023-01-12T22:25:41.054Z,100897.97
2023-01-12T22:28:08.526Z,100901.44
2023-01-12T22:30:36.055Z,100909.28
2023-01-12T22:33:03.531Z,100903.97
2023-01-12T22:35:31.083Z,100901.44
2023-01-12T22:37:58.478Z,100908.44
2023-01-12T22:40:25.949Z,100905.81
2023-01-12T22:43:31.872Z,100908.44
2023-01-12T22:45:59.545Z,100912.75
2023-01-12T22:48:28.274Z,100914.44
2023-01-12T22:50:59.869Z,100907.44
2023-01-12T22:53:27.453Z,100908.28
2023-01-12T22:55:59.403Z,100921.41
2023-01-12T22:58:26.940Z,100916.97
2023-01-12T23:00:54.624Z,100907.38
2023-01-12T23:03:22.307Z,100907.25
2023-01-12T23:05:56.275Z,100918.50
2023-01-12T23:08:24.224Z,100916.75
2023-01-12T23:10:52.322Z,100930.75
2023-01-12T23:13:21.486Z,100933.31
2023-01-12T23:15:58.061Z,100927.19
2023-01-12T23:18:29.453Z,100933.19
2023-01-12T23:21:20.636Z,100935.75
2023-01-12T23:23:56.740Z,100935.69
2023-01-12T23:26:30.961Z,100941.81
2023-01-12T23:29:00.582Z,100946.94
2023-01-12T23:31:32.092Z,100954.75
2023-01-12T23:34:00.053Z,100957.28
2023-01-12T23:36:29.771Z,100955.50
2023-01-12T23:39:00.167Z,100955.59
2023-01-12T23:41:29.407Z,100967.94
2023-01-12T23:43:59.519Z,100963.47
2023-01-12T23:46:29.083Z,100967.97
2023-01-12T23:48:57.767Z,100960.84
2023-01-12T23:58:27.619Z,100973.00
